CSAV Lonquen — A8OT2 — position and weather

sailwx.info

Track history (hours):
 
Tides and Currents Weather Stations Pressure Air Temp Water Temp Dewpoint Dewpoint Depression Visibility Wind Speed Wind Dir Waves Ship Positions

CSAV Lonquen

Last reported at 2017-Apr-05 23:42 UTC. Time now 2017-Apr-23 12:06 UTC.
Position N 01°54' E 102°23'.
Warning: this ship's position is 17 days out of date.

Length 261 m; draft 12.2 m.

Type: Ship (hazmat cat D). MMSI: 636091501.

Date/timePositionNaut miles runAvg speedWind from/ knotsBaromVisibWave heightAir tempDewpointWater temp
2017-Apr-05 23:42N 01°54' E 102°23'418.1
2017-Apr-05 23:30N 01°53' E 102°26'1218.0
2017-Apr-05 22:51N 01°48' E 102°37'617.9
2017-Apr-05 22:30N 01°45' E 102°42'917.5
2017-Apr-05 22:00N 01°42' E 102°50'4417.7
2017-Apr-05 19:32N 01°15' E 103°25'117.9
2017-Apr-05 19:30N 01°15' E 103°25'918.0
2017-Apr-05 18:59N 01°12' E 103°34'612.5
2017-Apr-05 18:30N 01°13' E 103°40'510.0
2017-Apr-05 18:00N 01°16' E 103°44'2 4.2
2017-Apr-05 17:30N 01°17' E 103°46'0 0.1
2017-Apr-05 16:58N 01°17' E 103°46'0 0.0
2017-Apr-05 16:28N 01°17' E 103°46'0 0.0
2017-Apr-05 15:55N 01°17' E 103°46'0 0.0
2017-Apr-05 15:28N 01°17' E 103°46'0 0.0
2017-Apr-05 14:58N 01°17' E 103°46'0 0.0
2017-Apr-05 13:58N 01°17' E 103°46'0 0.0
2017-Apr-05 13:28N 01°17' E 103°46'0 0.0
2017-Apr-05 12:58N 01°17' E 103°46'0 0.0
2017-Apr-05 12:28N 01°17' E 103°46'0 0.0
2017-Apr-05 11:58N 01°17' E 103°46'0 0.0
2017-Apr-05 11:28N 01°17' E 103°46'0 0.0
2017-Apr-05 10:58N 01°17' E 103°46'0 0.0
2017-Apr-05 10:28N 01°17' E 103°46'0 0.0
2017-Apr-05 09:55N 01°17' E 103°46'0 0.0
2017-Apr-05 09:28N 01°17' E 103°46'0 0.0
2017-Apr-05 08:58N 01°17' E 103°46'0 0.0
2017-Apr-05 08:30N 01°17' E 103°46'0 0.4
2017-Apr-05 08:00N 01°17' E 103°46'2 3.0
2017-Apr-05 07:30N 01°17' E 103°44'3 5.8
2017-Apr-05 07:00N 01°15' E 103°47'510.2
2017-Apr-05 06:30N 01°13' E 103°51'4 8.4
2017-Apr-05 06:00N 01°14' E 103°55'4 8.1
2017-Apr-05 05:30N 01°15' E 103°59'611.1
2017-Apr-05 05:00N 01°16' E 104°04'  
2017-Mar-27 18:33N 35°48' E 120°50'1514.6
2017-Mar-27 17:34N 35°58' E 120°37'1615.6
2017-Mar-27 16:33N 36°02' E 120°18'5 0.9
2017-Mar-27 11:24N 36°00' E 120°13'0 0.0
2017-Mar-27 10:21N 36°00' E 120°13'0 0.0
2017-Mar-27 06:24N 36°00' E 120°13'0 0.0
2017-Mar-27 05:18N 36°00' E 120°13'6 7.9
2017-Mar-27 04:33N 36°02' E 120°20'1211.6
2017-Mar-27 03:34N 35°59' E 120°34'1514.8
2017-Mar-27 02:33N 35°52' E 120°50'  
Track history (hours):
 
Tides and Currents Weather Stations Pressure Air Temp Water Temp Dewpoint Dewpoint Depression Visibility Wind Speed Wind Dir Waves Ship Positions

CSAV Lonquen

Last reported at 2017-Apr-05 23:42 UTC. Time now 2017-Apr-23 12:06 UTC.
Position N 01°54' E 102°23'.
Warning: this ship's position is 17 days out of date.

Length 261 m; draft 12.2 m.

Type: Ship (hazmat cat D). MMSI: 636091501.

Date/timePositionNaut miles runAvg speedWind from/ knotsBaromVisibWave heightAir tempDewpointWater temp
2017-Apr-05 23:42N 01°54' E 102°23'418.1
2017-Apr-05 23:30N 01°53' E 102°26'1218.0
2017-Apr-05 22:51N 01°48' E 102°37'617.9
2017-Apr-05 22:30N 01°45' E 102°42'917.5
2017-Apr-05 22:00N 01°42' E 102°50'4417.7
2017-Apr-05 19:32N 01°15' E 103°25'117.9
2017-Apr-05 19:30N 01°15' E 103°25'918.0
2017-Apr-05 18:59N 01°12' E 103°34'612.5
2017-Apr-05 18:30N 01°13' E 103°40'510.0
2017-Apr-05 18:00N 01°16' E 103°44'2 4.2
2017-Apr-05 17:30N 01°17' E 103°46'0 0.1
2017-Apr-05 16:58N 01°17' E 103°46'0 0.0
2017-Apr-05 16:28N 01°17' E 103°46'0 0.0
2017-Apr-05 15:55N 01°17' E 103°46'0 0.0
2017-Apr-05 15:28N 01°17' E 103°46'0 0.0
2017-Apr-05 14:58N 01°17' E 103°46'0 0.0
2017-Apr-05 13:58N 01°17' E 103°46'0 0.0
2017-Apr-05 13:28N 01°17' E 103°46'0 0.0
2017-Apr-05 12:58N 01°17' E 103°46'0 0.0
2017-Apr-05 12:28N 01°17' E 103°46'0 0.0
2017-Apr-05 11:58N 01°17' E 103°46'0 0.0
2017-Apr-05 11:28N 01°17' E 103°46'0 0.0
2017-Apr-05 10:58N 01°17' E 103°46'0 0.0
2017-Apr-05 10:28N 01°17' E 103°46'0 0.0
2017-Apr-05 09:55N 01°17' E 103°46'0 0.0
2017-Apr-05 09:28N 01°17' E 103°46'0 0.0
2017-Apr-05 08:58N 01°17' E 103°46'0 0.0
2017-Apr-05 08:30N 01°17' E 103°46'0 0.4
2017-Apr-05 08:00N 01°17' E 103°46'2 3.0
2017-Apr-05 07:30N 01°17' E 103°44'3 5.8
2017-Apr-05 07:00N 01°15' E 103°47'510.2
2017-Apr-05 06:30N 01°13' E 103°51'4 8.4
2017-Apr-05 06:00N 01°14' E 103°55'4 8.1
2017-Apr-05 05:30N 01°15' E 103°59'611.1
2017-Apr-05 05:00N 01°16' E 104°04'  
2017-Mar-27 18:33N 35°48' E 120°50'1514.6
2017-Mar-27 17:34N 35°58' E 120°37'1615.6
2017-Mar-27 16:33N 36°02' E 120°18'5 0.9
2017-Mar-27 11:24N 36°00' E 120°13'0 0.0
2017-Mar-27 10:21N 36°00' E 120°13'0 0.0
2017-Mar-27 06:24N 36°00' E 120°13'0 0.0
2017-Mar-27 05:18N 36°00' E 120°13'6 7.9
2017-Mar-27 04:33N 36°02' E 120°20'1211.6
2017-Mar-27 03:34N 35°59' E 120°34'1514.8
2017-Mar-27 02:33N 35°52' E 120°50'  

Dump ship's entire track history